createdAt,value
2022-11-20T00:01:18.139Z,3.16
2022-11-20T00:03:44.950Z,3.20
2022-11-20T00:06:14.964Z,3.21
2022-11-20T00:08:42.056Z,3.23
2022-11-20T00:11:15.500Z,3.26
2022-11-20T00:13:43.576Z,3.26
2022-11-20T00:16:13.704Z,3.27
2022-11-20T00:18:40.170Z,3.31
2022-11-20T00:21:09.092Z,3.41
2022-11-20T00:23:35.580Z,3.43
2022-11-20T00:26:10.431Z,3.41
2022-11-20T00:28:37.034Z,3.40
2022-11-20T00:31:03.739Z,3.39
2022-11-20T00:33:30.608Z,3.34
2022-11-20T00:36:24.276Z,3.40
2022-11-20T00:38:58.426Z,3.32
2022-11-20T00:41:26.073Z,3.28
2022-11-20T00:43:53.945Z,3.17
2022-11-20T00:46:22.828Z,3.11
2022-11-20T00:48:49.302Z,3.05
2022-11-20T00:51:18.941Z,3.10
2022-11-20T00:53:45.691Z,3.14
2022-11-20T00:56:14.235Z,3.14
2022-11-20T00:58:42.137Z,3.23
2022-11-20T01:01:14.857Z,3.28
2022-11-20T01:03:43.264Z,3.21
2022-11-20T01:06:13.750Z,3.20
2022-11-20T01:08:40.711Z,3.19
2022-11-20T01:11:10.613Z,3.15
2022-11-20T01:13:41.220Z,3.14
2022-11-20T01:16:13.091Z,3.18
2022-11-20T01:18:41.181Z,3.16
2022-11-20T01:21:11.317Z,3.15
2022-11-20T01:23:39.541Z,3.12
2022-11-20T01:26:09.162Z,3.08
2022-11-20T01:28:36.030Z,3.10
2022-11-20T01:31:02.759Z,3.07
2022-11-20T01:33:29.237Z,3.06
2022-11-20T01:36:04.858Z,3.07
2022-11-20T01:38:31.423Z,3.04
2022-11-20T01:40:57.935Z,3.11
2022-11-20T01:43:26.000Z,3.08
2022-11-20T01:46:16.109Z,3.07
2022-11-20T01:48:47.173Z,3.11
2022-11-20T01:51:25.246Z,3.17
2022-11-20T01:53:53.652Z,3.14
2022-11-20T01:56:20.144Z,3.08
2022-11-20T01:58:53.074Z,2.97
2022-11-20T02:01:19.588Z,2.92
2022-11-20T02:03:46.036Z,2.97
2022-11-20T02:06:20.715Z,2.93
2022-11-20T02:08:47.218Z,2.93
2022-11-20T02:11:13.813Z,2.94
2022-11-20T02:13:46.306Z,2.89
2022-11-20T02:16:17.350Z,2.93
2022-11-20T02:18:45.289Z,2.99
2022-11-20T02:21:41.787Z,3.00
2022-11-20T02:24:16.605Z,3.04
2022-11-20T02:26:53.323Z,3.00
2022-11-20T02:29:25.813Z,2.95
2022-11-20T02:31:52.570Z,2.87
2022-11-20T02:34:19.076Z,2.86
2022-11-20T02:36:45.586Z,2.84
2022-11-20T02:39:13.076Z,2.85
2022-11-20T02:41:40.143Z,2.77
2022-11-20T02:44:06.781Z,2.81
2022-11-20T02:46:33.816Z,2.78
2022-11-20T02:49:01.999Z,2.79
2022-11-20T02:51:28.436Z,2.78
2022-11-20T02:53:55.054Z,2.71
2022-11-20T02:56:21.530Z,2.74
2022-11-20T02:58:48.080Z,2.77
2022-11-20T03:01:14.730Z,2.79
2022-11-20T03:03:41.246Z,2.75
2022-11-20T03:06:08.619Z,2.75
2022-11-20T03:08:35.499Z,2.81
2022-11-20T03:11:07.051Z,2.80
2022-11-20T03:13:34.417Z,2.87
2022-11-20T03:16:09.044Z,2.85
2022-11-20T03:18:35.571Z,2.91
2022-11-20T03:21:01.994Z,2.90
2022-11-20T03:23:30.441Z,2.83
2022-11-20T03:25:56.862Z,2.80
2022-11-20T03:28:23.336Z,2.84
2022-11-20T03:30:49.810Z,2.90
2022-11-20T03:33:16.296Z,2.85
2022-11-20T03:35:42.686Z,2.79
2022-11-20T03:38:09.179Z,2.78
2022-11-20T03:40:36.574Z,2.78
2022-11-20T03:43:03.008Z,2.81
2022-11-20T03:45:29.462Z,2.80
2022-11-20T03:47:55.849Z,2.82
2022-11-20T03:50:22.482Z,2.79
2022-11-20T03:52:48.920Z,2.84
2022-11-20T03:55:15.355Z,2.85
2022-11-20T03:57:41.795Z,2.82
2022-11-20T04:00:08.677Z,2.83
2022-11-20T04:02:35.233Z,2.84
2022-11-20T04:05:01.662Z,2.78
2022-11-20T04:07:28.152Z,2.81
2022-11-20T04:09:54.662Z,2.82
2022-11-20T04:12:21.139Z,2.89
2022-11-20T04:14:47.607Z,2.91
2022-11-20T04:17:14.029Z,2.94
2022-11-20T04:19:40.468Z,2.91
2022-11-20T04:22:07.007Z,2.93
2022-11-20T04:24:33.479Z,2.95
2022-11-20T04:26:59.906Z,3.00
2022-11-20T04:29:26.437Z,3.09
2022-11-20T04:31:52.893Z,3.08
2022-11-20T04:34:19.423Z,3.11
2022-11-20T04:36:46.203Z,3.17
2022-11-20T04:39:14.729Z,3.14
2022-11-20T04:41:41.205Z,3.08
2022-11-20T04:44:07.992Z,3.09
2022-11-20T04:46:37.189Z,3.05
2022-11-20T04:49:04.198Z,3.07
2022-11-20T04:51:30.965Z,3.12
2022-11-20T04:53:57.476Z,3.12
2022-11-20T04:56:24.216Z,3.11
2022-11-20T04:58:51.015Z,3.14
2022-11-20T05:01:23.257Z,3.08
2022-11-20T05:03:50.064Z,3.05
2022-11-20T05:06:18.284Z,3.04
2022-11-20T05:08:44.699Z,3.06
2022-11-20T05:11:16.028Z,3.08
2022-11-20T05:13:42.879Z,3.06
2022-11-20T05:16:11.706Z,3.09
2022-11-20T05:18:39.156Z,3.12
2022-11-20T05:21:06.257Z,3.16
2022-11-20T05:23:33.168Z,3.17
2022-11-20T05:25:59.892Z,3.11
2022-11-20T05:28:27.704Z,3.08
2022-11-20T05:30:54.202Z,3.07
2022-11-20T05:33:21.145Z,3.07
2022-11-20T05:35:47.700Z,3.11
2022-11-20T05:38:14.123Z,3.10
2022-11-20T05:40:40.600Z,3.09
2022-11-20T05:43:07.074Z,3.12
2022-11-20T05:45:33.619Z,3.15
2022-11-20T05:48:01.142Z,3.17
2022-11-20T05:50:28.524Z,3.15
2022-11-20T05:53:00.481Z,3.10
2022-11-20T05:55:27.710Z,3.06
2022-11-20T05:57:55.592Z,3.11
2022-11-20T06:00:22.119Z,3.18
2022-11-20T06:02:48.602Z,3.21
2022-11-20T06:05:15.209Z,3.25
2022-11-20T06:07:41.785Z,3.24
2022-11-20T06:10:08.610Z,3.31
2022-11-20T06:12:35.055Z,3.23
2022-11-20T06:15:01.973Z,3.15
2022-11-20T06:17:28.377Z,3.14
2022-11-20T06:19:54.914Z,3.18
2022-11-20T06:22:21.383Z,3.17
2022-11-20T06:24:48.150Z,3.20
2022-11-20T06:27:14.670Z,3.12
2022-11-20T06:29:41.123Z,3.12
2022-11-20T06:32:07.579Z,3.17
2022-11-20T06:34:34.002Z,3.20
2022-11-20T06:37:00.580Z,3.18
2022-11-20T06:39:27.028Z,3.19
2022-11-20T06:41:58.505Z,3.24
2022-11-20T06:44:25.677Z,3.10
2022-11-20T06:46:52.172Z,3.14
2022-11-20T06:49:18.664Z,3.17
2022-11-20T06:51:45.297Z,3.25
2022-11-20T06:54:11.777Z,3.25
2022-11-20T06:56:38.573Z,3.24
2022-11-20T06:59:06.949Z,3.23
2022-11-20T07:01:33.478Z,3.18
2022-11-20T07:04:00.029Z,3.14
2022-11-20T07:06:26.428Z,3.19
2022-11-20T07:08:53.519Z,3.21
2022-11-20T07:11:20.005Z,3.28
2022-11-20T07:13:46.626Z,3.32
2022-11-20T07:16:13.057Z,3.31
2022-11-20T07:18:39.599Z,3.36
2022-11-20T07:21:08.525Z,3.46
2022-11-20T07:23:35.268Z,3.44
2022-11-20T07:26:09.067Z,3.43
2022-11-20T07:28:36.130Z,3.46
2022-11-20T07:31:02.814Z,3.48
2022-11-20T07:33:29.518Z,3.49
2022-11-20T07:35:55.954Z,3.46
2022-11-20T07:38:22.706Z,3.43
2022-11-20T07:40:49.870Z,3.44
2022-11-20T07:43:16.299Z,3.49
2022-11-20T07:45:42.681Z,3.40
2022-11-20T07:48:09.160Z,3.30
2022-11-20T07:50:35.546Z,3.23
2022-11-20T07:53:03.714Z,3.27
2022-11-20T07:55:30.181Z,3.32
2022-11-20T07:57:58.193Z,3.37
2022-11-20T08:00:24.845Z,3.37
2022-11-20T08:02:51.354Z,3.31
2022-11-20T08:05:17.877Z,3.16
2022-11-20T08:07:44.715Z,3.03
2022-11-20T08:10:14.571Z,2.93
2022-11-20T08:13:06.368Z,2.98
2022-11-20T08:15:33.165Z,2.98
2022-11-20T08:20:58.315Z,3.12
2022-11-20T08:23:24.711Z,3.21
2022-11-20T08:25:51.868Z,3.21
2022-11-20T08:28:21.650Z,3.28
2022-11-20T08:30:48.685Z,3.26
2022-11-20T08:33:15.422Z,3.34
2022-11-20T08:35:42.524Z,3.40
2022-11-20T08:38:09.789Z,3.45
2022-11-20T08:40:36.374Z,3.37
2022-11-20T08:43:02.917Z,3.38
2022-11-20T08:45:33.676Z,3.47
2022-11-20T08:48:01.988Z,3.58
2022-11-20T08:50:28.523Z,3.59
2022-11-20T08:52:56.065Z,3.65
2022-11-20T08:55:22.463Z,3.69
2022-11-20T08:57:50.981Z,3.64
2022-11-20T09:00:17.836Z,3.65
2022-11-20T09:02:44.268Z,3.72
2022-11-20T09:05:10.752Z,3.73
2022-11-20T09:07:37.312Z,3.82
2022-11-20T09:10:22.993Z,3.89
2022-11-20T09:12:51.474Z,3.96
2022-11-20T09:15:18.300Z,4.05
2022-11-20T09:17:59.001Z,4.11
2022-11-20T09:20:26.388Z,4.22
2022-11-20T09:22:52.850Z,4.30
2022-11-20T09:25:19.337Z,4.40
2022-11-20T09:27:46.951Z,4.40
2022-11-20T09:30:14.854Z,4.48
2022-11-20T09:32:41.534Z,4.53
2022-11-20T09:35:08.793Z,4.52
2022-11-20T09:37:35.373Z,4.50
2022-11-20T09:40:01.901Z,4.50
2022-11-20T09:42:28.302Z,4.59
2022-11-20T09:45:06.776Z,4.59
2022-11-20T09:47:45.122Z,4.60
2022-11-20T09:50:28.905Z,4.63
2022-11-20T09:53:26.353Z,4.61
2022-11-20T09:55:52.918Z,4.63
2022-11-20T09:58:41.163Z,4.67
2022-11-20T10:01:15.143Z,4.65
2022-11-20T10:04:11.882Z,4.68
2022-11-20T10:06:44.000Z,4.64
2022-11-20T10:09:13.352Z,4.65
2022-11-20T10:11:58.243Z,4.63
2022-11-20T10:14:31.155Z,4.62
2022-11-20T10:17:00.434Z,4.61
2022-11-20T10:19:37.924Z,4.62
2022-11-20T10:22:13.170Z,4.62
2022-11-20T10:24:45.498Z,4.63
2022-11-20T10:27:33.497Z,4.60
2022-11-20T10:30:17.326Z,4.50
2022-11-20T10:32:47.569Z,4.53
2022-11-20T10:35:27.584Z,4.51
2022-11-20T10:38:01.945Z,4.46
2022-11-20T10:40:42.392Z,4.41
2022-11-20T10:43:17.367Z,4.43
2022-11-20T10:45:53.089Z,4.42
2022-11-20T10:48:23.409Z,4.43
2022-11-20T10:51:04.758Z,4.40
2022-11-20T10:53:46.705Z,4.48
2022-11-20T10:56:31.772Z,4.54
2022-11-20T10:59:35.680Z,4.60
2022-11-20T11:02:03.463Z,4.69
2022-11-20T11:04:34.678Z,4.75
2022-11-20T11:07:10.554Z,4.68
2022-11-20T11:09:40.940Z,4.63
2022-11-20T11:12:09.486Z,4.56
2022-11-20T11:14:54.181Z,4.52
2022-11-20T11:17:25.043Z,4.54
2022-11-20T11:20:21.626Z,4.58
2022-11-20T11:22:50.786Z,4.55
2022-11-20T11:25:36.909Z,4.57
2022-11-20T11:28:21.349Z,4.57
2022-11-20T11:30:50.156Z,4.61
2022-11-20T11:33:28.341Z,4.64
2022-11-20T11:36:00.260Z,4.65
2022-11-20T11:38:38.851Z,4.65
2022-11-20T11:41:06.470Z,4.70
2022-11-20T11:43:53.640Z,4.77
2022-11-20T11:46:22.748Z,4.83
2022-11-20T11:49:04.234Z,4.86
2022-11-20T11:51:36.504Z,4.86
2022-11-20T11:54:11.525Z,4.93
2022-11-20T11:56:37.957Z,5.00
2022-11-20T11:59:10.612Z,5.03
2022-11-20T12:01:53.601Z,4.95
2022-11-20T12:04:45.673Z,5.01
2022-11-20T12:07:44.744Z,5.05
2022-11-20T12:10:09.205Z,5.14
2022-11-20T12:12:42.586Z,5.16
2022-11-20T12:15:13.845Z,5.16
2022-11-20T12:17:40.381Z,5.19
2022-11-20T12:20:13.632Z,5.27
2022-11-20T12:23:16.252Z,5.27
2022-11-20T12:25:46.109Z,5.27
2022-11-20T12:28:23.944Z,5.30
2022-11-20T12:31:14.934Z,5.38
2022-11-20T12:34:00.088Z,5.46
2022-11-20T12:36:49.718Z,5.60
2022-11-20T12:39:25.120Z,5.68
2022-11-20T12:42:33.229Z,5.75
2022-11-20T12:45:15.834Z,5.83
2022-11-20T12:48:15.691Z,5.83
2022-11-20T12:51:16.415Z,5.82
2022-11-20T12:53:51.933Z,5.88
2022-11-20T12:56:37.192Z,5.96
2022-11-20T12:59:29.449Z,5.96
2022-11-20T13:02:20.833Z,6.00
2022-11-20T13:04:49.951Z,6.05
2022-11-20T13:07:17.459Z,6.13
2022-11-20T13:09:49.646Z,6.20
2022-11-20T13:12:44.594Z,6.24
2022-11-20T13:15:24.883Z,6.25
2022-11-20T13:18:00.625Z,6.33
2022-11-20T13:20:27.160Z,6.42
2022-11-20T13:23:00.985Z,6.44
2022-11-20T13:25:33.135Z,6.50
2022-11-20T13:28:01.608Z,6.57
2022-11-20T13:30:29.073Z,6.57
2022-11-20T13:32:58.018Z,6.59
2022-11-20T13:35:32.228Z,6.51
2022-11-20T13:38:08.021Z,6.52
2022-11-20T13:40:37.409Z,6.58
2022-11-20T13:43:24.080Z,6.56
2022-11-20T13:46:03.312Z,6.50
2022-11-20T13:48:42.944Z,6.47
2022-11-20T13:51:12.406Z,6.49
2022-11-20T13:53:57.415Z,6.50
2022-11-20T13:56:48.997Z,6.51
2022-11-20T13:59:34.199Z,6.49
2022-11-20T14:02:01.458Z,6.52
2022-11-20T14:04:31.242Z,6.58
2022-11-20T14:06:58.243Z,6.58
2022-11-20T14:09:32.772Z,6.62
2022-11-20T14:11:59.450Z,6.63
2022-11-20T14:14:27.918Z,6.63
2022-11-20T14:17:24.162Z,6.61
2022-11-20T14:19:52.534Z,6.63
2022-11-20T14:22:21.730Z,6.66
2022-11-20T14:25:09.070Z,6.71
2022-11-20T14:27:38.328Z,6.73
2022-11-20T14:30:05.528Z,6.77
2022-11-20T14:32:32.400Z,6.79
2022-11-20T14:35:03.815Z,6.75
2022-11-20T14:37:34.428Z,6.76
2022-11-20T14:40:01.628Z,6.79
2022-11-20T14:42:29.213Z,6.83
2022-11-20T14:44:57.980Z,6.85
2022-11-20T14:47:27.009Z,6.87
2022-11-20T14:49:54.373Z,6.84
2022-11-20T14:52:25.456Z,6.72
2022-11-20T14:54:54.009Z,6.66
2022-11-20T14:57:34.302Z,6.64
2022-11-20T15:00:06.143Z,6.57
2022-11-20T15:02:32.675Z,6.53
2022-11-20T15:05:04.183Z,6.49
2022-11-20T15:07:36.382Z,6.43
2022-11-20T15:10:07.639Z,6.46
2022-11-20T15:12:40.543Z,6.47
2022-11-20T15:15:09.569Z,6.48
2022-11-20T15:17:37.878Z,6.48
2022-11-20T15:20:09.933Z,6.49
2022-11-20T15:22:36.400Z,6.51
2022-11-20T15:25:02.797Z,6.46
2022-11-20T15:27:30.002Z,6.46
2022-11-20T15:29:56.391Z,6.52
2022-11-20T15:32:22.818Z,6.50
2022-11-20T15:34:49.273Z,6.50
2022-11-20T15:37:17.440Z,6.53
2022-11-20T15:39:43.879Z,6.50
2022-11-20T15:42:10.322Z,6.50
2022-11-20T15:44:36.760Z,6.54
2022-11-20T15:47:03.251Z,6.59
2022-11-20T15:49:29.702Z,6.55
2022-11-20T15:51:56.151Z,6.56
2022-11-20T15:54:23.563Z,6.59
2022-11-20T15:56:53.134Z,6.59
2022-11-20T15:59:19.590Z,6.62
2022-11-20T16:01:46.046Z,6.61
2022-11-20T16:04:14.125Z,6.60
2022-11-20T16:06:41.097Z,6.53
2022-11-20T16:09:08.137Z,6.50
2022-11-20T16:11:37.386Z,6.47
2022-11-20T16:14:25.849Z,6.51
2022-11-20T16:16:52.725Z,6.52
2022-11-20T16:19:19.435Z,6.47
2022-11-20T16:21:45.888Z,6.45
2022-11-20T16:24:13.839Z,6.46
2022-11-20T16:26:40.909Z,6.47
2022-11-20T16:29:07.894Z,6.43
2022-11-20T16:31:34.612Z,6.44
2022-11-20T16:34:08.466Z,6.50
2022-11-20T16:36:40.347Z,6.51
2022-11-20T16:39:06.934Z,6.44
2022-11-20T16:41:34.800Z,6.58
2022-11-20T16:44:02.595Z,6.58
2022-11-20T16:46:32.718Z,6.58
2022-11-20T16:49:07.375Z,6.55
2022-11-20T16:51:37.327Z,6.52
2022-11-20T16:54:05.082Z,6.59
2022-11-20T16:56:31.626Z,6.62
2022-11-20T16:58:59.386Z,6.65
2022-11-20T17:01:28.418Z,6.67
2022-11-20T17:03:57.833Z,6.65
2022-11-20T17:06:28.406Z,6.67
2022-11-20T17:08:57.250Z,6.61
2022-11-20T17:11:24.231Z,6.55
2022-11-20T17:13:50.834Z,6.51
2022-11-20T17:16:21.789Z,6.48
2022-11-20T17:18:50.003Z,6.42
2022-11-20T17:21:17.921Z,6.35
2022-11-20T17:23:45.422Z,6.34
2022-11-20T17:26:14.619Z,6.34
2022-11-20T17:28:41.374Z,6.32
2022-11-20T17:31:10.591Z,6.32
2022-11-20T17:33:38.642Z,6.31
2022-11-20T17:36:09.601Z,6.30
2022-11-20T17:38:36.575Z,6.28
2022-11-20T17:41:14.407Z,6.31
2022-11-20T17:43:42.202Z,6.27
2022-11-20T17:46:11.506Z,6.22
2022-11-20T17:48:38.134Z,6.24
2022-11-20T17:51:06.290Z,6.26
2022-11-20T17:53:34.469Z,6.27
2022-11-20T17:56:19.561Z,6.22
2022-11-20T17:58:46.097Z,6.23
2022-11-20T18:01:12.568Z,6.21
2022-11-20T18:03:39.073Z,6.23
2022-11-20T18:06:16.751Z,6.22
2022-11-20T18:08:43.413Z,6.21
2022-11-20T18:11:21.182Z,6.20
2022-11-20T18:14:08.909Z,6.19
2022-11-20T18:16:47.186Z,6.17
2022-11-20T18:19:16.591Z,6.15
2022-11-20T18:21:43.292Z,6.17
2022-11-20T18:24:10.183Z,6.15
2022-11-20T18:26:42.801Z,6.10
2022-11-20T18:29:11.398Z,6.11
2022-11-20T18:31:38.099Z,6.11
2022-11-20T18:34:05.089Z,6.11
2022-11-20T18:36:32.535Z,6.12
2022-11-20T18:38:59.926Z,6.15
2022-11-20T18:41:47.680Z,6.14
2022-11-20T18:44:41.247Z,6.11
2022-11-20T18:47:14.532Z,6.13
2022-11-20T18:49:52.303Z,6.12
2022-11-20T18:52:23.849Z,6.06
2022-11-20T18:54:50.904Z,6.10
2022-11-20T18:57:18.794Z,6.11
2022-11-20T18:59:45.367Z,6.12
2022-11-20T19:02:17.082Z,6.12
2022-11-20T19:04:43.878Z,6.09
2022-11-20T19:07:13.905Z,6.04
2022-11-20T19:09:42.063Z,6.03
2022-11-20T19:12:09.733Z,5.99
2022-11-20T19:14:36.365Z,5.98
2022-11-20T19:17:04.061Z,5.97
2022-11-20T19:19:30.622Z,5.95
2022-11-20T19:21:57.127Z,5.91
2022-11-20T19:24:23.693Z,5.85
2022-11-20T19:26:50.162Z,5.78
2022-11-20T19:29:16.980Z,5.75
2022-11-20T19:31:43.672Z,5.75
2022-11-20T19:34:11.976Z,5.73
2022-11-20T19:36:44.592Z,5.76
2022-11-20T19:39:11.575Z,5.74
2022-11-20T19:41:39.660Z,5.72
2022-11-20T19:44:11.254Z,5.79
2022-11-20T19:46:38.687Z,5.72
2022-11-20T19:49:07.426Z,5.68
2022-11-20T19:51:34.867Z,5.69
2022-11-20T19:54:01.651Z,5.68
2022-11-20T19:56:30.315Z,5.67
2022-11-20T19:58:57.238Z,5.62
2022-11-20T20:01:26.298Z,5.67
2022-11-20T20:03:53.555Z,5.70
2022-11-20T20:06:24.991Z,5.70
2022-11-20T20:09:00.251Z,5.68
2022-11-20T20:11:28.105Z,5.72
2022-11-20T20:13:55.942Z,5.64
2022-11-20T20:16:24.803Z,5.64
2022-11-20T20:18:57.690Z,5.65
2022-11-20T20:21:24.186Z,5.63
2022-11-20T20:23:53.407Z,5.64
2022-11-20T20:26:20.873Z,5.58
2022-11-20T20:28:47.321Z,5.56
2022-11-20T20:31:16.151Z,5.58
2022-11-20T20:33:43.105Z,5.56
2022-11-20T20:36:11.114Z,5.59
2022-11-20T20:38:37.873Z,5.61
2022-11-20T20:41:04.839Z,5.60
2022-11-20T20:43:31.490Z,5.63
2022-11-20T20:45:58.118Z,5.60
2022-11-20T20:48:25.242Z,5.60
2022-11-20T20:51:00.253Z,5.58
2022-11-20T20:53:27.534Z,5.62
2022-11-20T20:55:58.375Z,5.65
2022-11-20T20:58:25.451Z,5.66
2022-11-20T21:00:52.127Z,5.65
2022-11-20T21:03:18.910Z,5.63
2022-11-20T21:05:45.752Z,5.63
2022-11-20T21:08:21.349Z,5.62
2022-11-20T21:10:52.633Z,5.64
2022-11-20T21:13:20.609Z,5.69
2022-11-20T21:15:48.984Z,5.69
2022-11-20T21:18:17.193Z,5.70
2022-11-20T21:21:03.692Z,5.73
2022-11-20T21:23:30.541Z,5.72
2022-11-20T21:25:57.040Z,5.69
2022-11-20T21:28:23.451Z,5.68
2022-11-20T21:30:49.957Z,5.64
2022-11-20T21:33:16.470Z,5.62
2022-11-20T21:35:42.899Z,5.62
2022-11-20T21:38:09.414Z,5.59
2022-11-20T21:40:35.846Z,5.56
2022-11-20T21:43:02.266Z,5.55
2022-11-20T21:45:28.675Z,5.61
2022-11-20T21:47:55.154Z,5.64
2022-11-20T21:50:22.124Z,5.68
2022-11-20T21:52:48.617Z,5.74
2022-11-20T21:55:15.011Z,5.80
2022-11-20T21:57:41.525Z,5.77
2022-11-20T22:00:08.741Z,5.82
2022-11-20T22:02:40.905Z,5.86
2022-11-20T22:05:08.113Z,5.88
2022-11-20T22:07:35.211Z,5.90
2022-11-20T22:10:01.708Z,5.97
2022-11-20T22:12:28.141Z,5.98
2022-11-20T22:14:54.573Z,6.00
2022-11-20T22:17:40.951Z,6.00
2022-11-20T22:20:08.332Z,6.04
2022-11-20T22:22:34.774Z,6.06
2022-11-20T22:25:01.228Z,6.09
2022-11-20T22:27:27.647Z,6.10
2022-11-20T22:29:54.165Z,6.12
2022-11-20T22:32:20.656Z,6.17
2022-11-20T22:34:47.105Z,6.18
2022-11-20T22:37:13.573Z,6.22
2022-11-20T22:39:40.065Z,6.24
2022-11-20T22:42:06.574Z,6.23
2022-11-20T22:44:33.016Z,6.23
2022-11-20T22:46:59.467Z,6.22
2022-11-20T22:49:25.989Z,6.25
2022-11-20T22:51:52.480Z,6.28
2022-11-20T22:54:18.942Z,6.27
2022-11-20T22:56:45.640Z,6.29
2022-11-20T22:59:12.388Z,6.25
2022-11-20T23:01:38.828Z,6.30
2022-11-20T23:04:07.997Z,6.29
2022-11-20T23:06:34.570Z,6.26
2022-11-20T23:09:01.910Z,6.24
2022-11-20T23:11:29.599Z,6.28
2022-11-20T23:13:58.179Z,6.30
2022-11-20T23:16:26.274Z,6.28
2022-11-20T23:18:57.912Z,6.29
2022-11-20T23:21:24.415Z,6.30
2022-11-20T23:23:52.808Z,6.31
2022-11-20T23:26:21.083Z,6.30
2022-11-20T23:28:47.687Z,6.29
2022-11-20T23:31:15.087Z,6.34
2022-11-20T23:33:43.837Z,6.34
2022-11-20T23:36:10.721Z,6.30
2022-11-20T23:38:37.669Z,6.36
2022-11-20T23:41:04.658Z,6.35
2022-11-20T23:43:31.306Z,6.31
2022-11-20T23:45:59.413Z,6.34
2022-11-20T23:48:28.186Z,6.34
2022-11-20T23:50:54.725Z,6.31
2022-11-20T23:53:22.049Z,6.25
2022-11-20T23:55:51.825Z,6.20
2022-11-20T23:58:18.958Z,6.18
